createdAt,value
2022-12-31T20:03:26.172Z,75.63
2022-12-31T20:04:26.033Z,74.52
2022-12-31T20:05:26.028Z,74.72
2022-12-31T20:06:26.027Z,74.31
2022-12-31T20:07:27.361Z,74.41
2022-12-31T20:08:26.011Z,73.60
2022-12-31T20:09:25.999Z,73.70
2022-12-31T20:10:25.984Z,73.70
2022-12-31T20:11:26.003Z,73.60
2022-12-31T20:12:25.966Z,72.99
2022-12-31T20:13:25.969Z,73.09
2022-12-31T20:14:25.971Z,73.19
2022-12-31T20:15:25.970Z,72.75
2022-12-31T20:16:25.974Z,72.99
2022-12-31T20:17:25.947Z,72.96
2022-12-31T20:18:25.930Z,72.45
2022-12-31T20:19:25.937Z,73.09
2022-12-31T20:20:25.909Z,72.55
2022-12-31T20:21:25.936Z,73.16
2022-12-31T20:22:25.892Z,72.55
2022-12-31T20:23:25.890Z,72.65
2022-12-31T20:24:25.875Z,72.55
2022-12-31T20:25:25.869Z,72.55
2022-12-31T20:26:25.862Z,72.55
2022-12-31T20:27:25.882Z,72.45
2022-12-31T20:28:25.851Z,72.58
2022-12-31T20:29:25.840Z,72.34
2022-12-31T20:30:25.886Z,71.94
2022-12-31T20:31:25.821Z,72.58
2022-12-31T20:32:25.816Z,72.65
2022-12-31T20:33:25.818Z,72.17
2022-12-31T20:34:25.795Z,72.45
2022-12-31T20:35:25.822Z,71.57
2022-12-31T20:36:25.801Z,72.17
2022-12-31T20:37:25.783Z,71.43
2022-12-31T20:38:25.768Z,72.17
2022-12-31T20:39:25.764Z,71.87
2022-12-31T20:40:25.756Z,71.84
2022-12-31T20:41:25.771Z,71.87
2022-12-31T20:42:25.754Z,72.08
2022-12-31T20:43:25.744Z,71.67
2022-12-31T20:44:25.725Z,71.77
2022-12-31T20:45:25.728Z,70.75
2022-12-31T20:46:25.811Z,71.57
2022-12-31T20:47:25.728Z,71.06
2022-12-31T20:48:25.696Z,70.86
2022-12-31T20:49:52.207Z,70.25
2022-12-31T20:50:26.679Z,70.82
2022-12-31T20:51:25.703Z,71.16
2022-12-31T20:52:25.664Z,70.62
2022-12-31T20:53:25.650Z,70.35
2022-12-31T20:54:25.657Z,69.91
2022-12-31T20:55:25.657Z,69.81
2022-12-31T20:56:25.648Z,70.25
2022-12-31T20:57:28.831Z,70.25
2022-12-31T20:58:26.654Z,70.21
2022-12-31T20:59:25.645Z,70.21
2022-12-31T21:00:25.616Z,70.04
2022-12-31T21:01:26.262Z,70.21
2022-12-31T21:02:40.900Z,69.43
2022-12-31T21:04:03.004Z,69.64
2022-12-31T21:04:26.855Z,69.43
2022-12-31T21:05:25.843Z,69.33
2022-12-31T21:06:25.610Z,69.20
2022-12-31T21:07:25.577Z,69.43
2022-12-31T21:08:29.721Z,69.33
2022-12-31T21:09:26.545Z,69.43
2022-12-31T21:10:25.589Z,69.43
2022-12-31T21:11:25.532Z,69.43
2022-12-31T21:12:25.545Z,69.60
2022-12-31T21:13:25.532Z,69.64
2022-12-31T21:14:25.532Z,69.64
2022-12-31T21:15:25.572Z,69.60
2022-12-31T21:16:25.507Z,69.64
2022-12-31T21:17:25.493Z,69.74
2022-12-31T21:18:25.512Z,69.33
2022-12-31T21:19:25.476Z,69.43
2022-12-31T21:20:25.467Z,69.64
2022-12-31T21:21:25.486Z,69.64
2022-12-31T21:22:25.478Z,69.84
2022-12-31T21:23:25.461Z,69.64
